Warren, VT

9:10 AM EDT on September 04, 2015 (GMT -0400)
APRSWXNET | | Change Station
CLOSE
Current Station
Personal Weather Station
Location: Warren, VT
Elevation: 1788 ft
Nearby Weather Stations

Elev 1788 ft 44.11 °N, 72.80 °W | Updated 21 minutes ago

Mostly Cloudy
Mostly Cloudy
64 °F
Feels Like 64 °F
N
5
Wind Variable Wind from SSE
Gusts 11.0 mph

Today
High -- | Low -- °F
--% Chance of Precip.
Yesterday
High -- | Low -- °F
Precip. -- in
6:17 AM 7:22 PM
Waning Gibbous, 59% visible
Pressure 30.15 in
Visibility 10.0 miles
Clouds Clear
Dew Point 53 °F
Humidity 68%
Rainfall in
Snow Depth Not available.
UV 2 out of 12
Pollen 7.90 out of 12
Air Quality Not available.
Flu Activity Not available.
METAR K6B0 041255Z AUTO 00000KT 10SM CLR 17/14 A3015 RMK AO2 T01690137
Pressure 30.15 in
Visibility 10.0 miles
Clouds Clear
Dew Point 53 °F
Humidity 68%
Rainfall in
Snow Depth Not available.
UV 2 out of 12
Pollen 7.90 out of 12
Air Quality Not available.
Flu Activity Not available.
METAR K6B0 041255Z AUTO 00000KT 10SM CLR 17/14 A3015 RMK AO2 T01690137

10-Day Weather Forecast

×

Almanac

Astronomy

Sep. 04, 2015 Rise Set
Actual Time
Civil Twilight
Nautical Twilight
Astronomical Twilight
Moon
Length of Visible Light
Length of Day
Tomorrow will be .
, % of the Moon is Illuminated

Today's Extremes

State Highs State Lows

Community

WunderPhotos

Upload Photos

1,852,179 photos uploaded!

WunderBlogs® & News

Nearby

Air Quality

  Air Quality AQ Index Pollutant
Not available.

Snow Depth

Station Depth Elevation

Earthquake Activity

City Distance Mag. Time & Date
Minimum magnitude displayed is 2.5.

Coastal Water Temperatures

Place Temperature

Stations

Nearby Weather Stations

Station Location Temp. Windchill Dew Point Humidity Wind Precip. Elev Updated Type